createdAt,value
2022-10-31T00:00:19.070Z,1003.81
2022-10-31T00:01:19.019Z,1003.82
2022-10-31T00:02:19.149Z,1003.81
2022-10-31T00:03:19.345Z,1003.82
2022-10-31T00:04:18.990Z,1003.83
2022-10-31T00:05:18.974Z,1003.82
2022-10-31T00:06:18.981Z,1003.81
2022-10-31T00:07:19.450Z,1003.82
2022-10-31T00:08:19.025Z,1003.85
2022-10-31T00:09:18.913Z,1003.84
2022-10-31T00:10:18.902Z,1003.87
2022-10-31T00:11:19.084Z,1003.85
2022-10-31T00:12:18.886Z,1003.86
2022-10-31T00:13:18.951Z,1003.82
2022-10-31T00:14:19.085Z,1003.84
2022-10-31T00:15:18.832Z,1003.87
2022-10-31T00:16:18.825Z,1003.87
2022-10-31T00:17:18.817Z,1003.86
2022-10-31T00:18:18.804Z,1003.86
2022-10-31T00:19:18.773Z,1003.85
2022-10-31T00:20:18.764Z,1003.89
2022-10-31T00:21:18.754Z,1003.89
2022-10-31T00:22:19.014Z,1003.84
2022-10-31T00:23:18.728Z,1003.86
2022-10-31T00:24:19.675Z,1003.89
2022-10-31T00:25:18.694Z,1003.89
2022-10-31T00:26:18.691Z,1003.88
2022-10-31T00:27:18.708Z,1003.85
2022-10-31T00:29:18.648Z,1003.86
2022-10-31T00:30:18.642Z,1003.85
2022-10-31T00:31:18.616Z,1003.85
2022-10-31T00:32:18.614Z,1003.89
2022-10-31T00:33:18.599Z,1003.86
2022-10-31T00:34:18.579Z,1003.85
2022-10-31T00:35:18.608Z,1003.84
2022-10-31T00:36:18.554Z,1003.88
2022-10-31T00:37:18.550Z,1003.93
2022-10-31T00:38:18.539Z,1003.91
2022-10-31T00:39:18.529Z,1003.85
2022-10-31T00:40:18.500Z,1003.91
2022-10-31T00:41:18.488Z,1003.91
2022-10-31T00:42:18.496Z,1003.92
2022-10-31T00:43:18.463Z,1003.90
2022-10-31T00:44:18.451Z,1003.90
2022-10-31T00:45:18.432Z,1003.89
2022-10-31T00:46:19.390Z,1003.91
2022-10-31T00:47:18.441Z,1003.94
2022-10-31T00:48:18.414Z,1003.91
2022-10-31T00:49:18.383Z,1003.91
2022-10-31T00:50:18.372Z,1003.93
2022-10-31T00:51:18.362Z,1003.96
2022-10-31T00:52:18.592Z,1003.99
2022-10-31T00:53:18.325Z,1004.02
2022-10-31T00:54:18.324Z,1003.98
2022-10-31T00:55:18.313Z,1003.98
2022-10-31T00:56:18.295Z,1004.06
2022-10-31T00:57:18.295Z,1004.07
2022-10-31T00:58:18.267Z,1004.06
2022-10-31T00:59:18.253Z,1004.06
2022-10-31T01:00:18.251Z,1004.04
2022-10-31T01:01:18.335Z,1004.04
2022-10-31T01:02:18.351Z,1004.09
2022-10-31T01:03:18.197Z,1004.10
2022-10-31T01:04:18.195Z,1004.10
2022-10-31T01:05:18.177Z,1004.11
2022-10-31T01:06:18.167Z,1004.08
2022-10-31T01:07:18.142Z,1004.10
2022-10-31T01:08:18.140Z,1004.11
2022-10-31T01:09:18.127Z,1004.07
2022-10-31T01:10:18.116Z,1004.08
2022-10-31T01:11:18.099Z,1004.13
2022-10-31T01:12:18.092Z,1004.09
2022-10-31T01:13:18.756Z,1004.10
2022-10-31T01:14:18.063Z,1004.07
2022-10-31T01:15:18.172Z,1004.09
2022-10-31T01:16:18.240Z,1004.06
2022-10-31T01:17:18.012Z,1004.07
2022-10-31T01:18:18.022Z,1004.05
2022-10-31T01:19:17.995Z,1004.04
2022-10-31T01:20:17.985Z,1004.03
2022-10-31T01:21:17.972Z,1004.04
2022-10-31T01:22:17.953Z,1004.08
2022-10-31T01:23:17.932Z,1004.06
2022-10-31T01:24:18.133Z,1004.09
2022-10-31T01:25:17.921Z,1004.15
2022-10-31T01:26:17.915Z,1004.11
2022-10-31T01:27:17.894Z,1004.10
2022-10-31T01:28:17.915Z,1004.11
2022-10-31T01:29:17.863Z,1004.10
2022-10-31T01:30:17.858Z,1004.14
2022-10-31T01:31:17.854Z,1004.12
2022-10-31T01:32:17.829Z,1004.09
2022-10-31T01:33:17.813Z,1004.14
2022-10-31T01:34:17.801Z,1004.09
2022-10-31T01:35:17.786Z,1004.04
2022-10-31T01:36:17.777Z,1004.05
2022-10-31T01:37:17.756Z,1004.01
2022-10-31T01:38:17.784Z,1004.00
2022-10-31T01:39:17.826Z,1004.06
2022-10-31T01:40:17.717Z,1004.04
2022-10-31T01:41:17.906Z,1004.08
2022-10-31T01:42:17.967Z,1004.04
2022-10-31T01:43:17.707Z,1004.01
2022-10-31T01:44:17.688Z,1004.01
2022-10-31T01:45:17.647Z,1004.02
2022-10-31T01:46:17.660Z,1004.04
2022-10-31T01:47:17.622Z,1004.02
2022-10-31T01:48:17.774Z,1004.02
2022-10-31T01:49:17.589Z,1003.97
2022-10-31T01:50:17.581Z,1003.98
2022-10-31T01:51:17.570Z,1004.00
2022-10-31T01:52:18.512Z,1004.03
2022-10-31T01:53:19.872Z,1004.06
2022-10-31T01:54:17.550Z,1004.06
2022-10-31T01:55:17.532Z,1004.08
2022-10-31T01:56:17.503Z,1004.04
2022-10-31T01:57:17.511Z,1004.11
2022-10-31T01:58:19.980Z,1004.11
2022-10-31T01:59:17.463Z,1004.12
2022-10-31T02:00:17.962Z,1004.07
2022-10-31T02:01:17.600Z,1004.08
2022-10-31T02:03:49.721Z,1004.03
2022-10-31T02:04:26.896Z,1004.02
2022-10-31T02:05:26.620Z,1004.02
2022-10-31T02:06:26.599Z,1004.03
2022-10-31T02:07:26.595Z,1004.06
2022-10-31T02:08:26.582Z,1004.07
2022-10-31T02:09:26.561Z,1004.02
2022-10-31T02:10:27.212Z,1004.07
2022-10-31T02:11:28.463Z,1004.07
2022-10-31T02:12:26.521Z,1004.09
2022-10-31T02:14:26.493Z,1004.12
2022-10-31T02:15:26.485Z,1004.09
2022-10-31T02:16:28.144Z,1004.09
2022-10-31T02:17:26.462Z,1004.13
2022-10-31T02:18:26.454Z,1004.10
2022-10-31T02:19:26.438Z,1004.12
2022-10-31T02:20:27.006Z,1004.15
2022-10-31T02:21:26.413Z,1004.18
2022-10-31T02:22:26.648Z,1004.17
2022-10-31T02:23:26.373Z,1004.19
2022-10-31T02:24:26.356Z,1004.18
2022-10-31T02:25:26.355Z,1004.18
2022-10-31T02:26:26.344Z,1004.17
2022-10-31T02:27:26.323Z,1004.15
2022-10-31T02:28:27.158Z,1004.21
2022-10-31T02:29:26.886Z,1004.17
2022-10-31T02:30:26.292Z,1004.21
2022-10-31T02:31:26.266Z,1004.22
2022-10-31T02:32:27.278Z,1004.25
2022-10-31T02:33:26.256Z,1004.26
2022-10-31T02:34:27.287Z,1004.23
2022-10-31T02:35:30.906Z,1004.27
2022-10-31T02:36:26.219Z,1004.22
2022-10-31T02:37:26.189Z,1004.24
2022-10-31T02:38:26.189Z,1004.22
2022-10-31T02:39:26.369Z,1004.23
2022-10-31T02:40:26.919Z,1004.23
2022-10-31T02:41:26.141Z,1004.22
2022-10-31T02:42:26.950Z,1004.25
2022-10-31T02:43:26.112Z,1004.27
2022-10-31T02:44:26.467Z,1004.26
2022-10-31T02:45:27.010Z,1004.23
2022-10-31T02:46:29.613Z,1004.28
2022-10-31T02:47:26.284Z,1004.27
2022-10-31T02:48:26.057Z,1004.26
2022-10-31T02:49:26.030Z,1004.22
2022-10-31T02:50:26.033Z,1004.18
2022-10-31T02:51:26.011Z,1004.23
2022-10-31T02:52:26.004Z,1004.23
2022-10-31T02:53:25.980Z,1004.21
2022-10-31T02:54:25.970Z,1004.25
2022-10-31T02:55:25.962Z,1004.25
2022-10-31T02:56:25.944Z,1004.26
2022-10-31T02:57:26.728Z,1004.27
2022-10-31T02:58:27.018Z,1004.31
2022-10-31T02:59:25.913Z,1004.29
2022-10-31T03:00:26.086Z,1004.30
2022-10-31T03:01:26.754Z,1004.29
2022-10-31T03:02:27.829Z,1004.33
2022-10-31T03:03:26.964Z,1004.31
2022-10-31T03:04:26.243Z,1004.30
2022-10-31T03:05:25.835Z,1004.34
2022-10-31T03:06:25.825Z,1004.29
2022-10-31T03:07:25.805Z,1004.34
2022-10-31T03:08:25.796Z,1004.35
2022-10-31T03:09:25.776Z,1004.36
2022-10-31T03:10:25.773Z,1004.40
2022-10-31T03:11:25.757Z,1004.40
2022-10-31T03:12:25.738Z,1004.40
2022-10-31T03:13:25.729Z,1004.42
2022-10-31T03:14:26.017Z,1004.45
2022-10-31T03:15:25.698Z,1004.45
2022-10-31T03:16:25.688Z,1004.49
2022-10-31T03:17:25.711Z,1004.45
2022-10-31T03:18:25.658Z,1004.49
2022-10-31T03:19:25.638Z,1004.47
2022-10-31T03:20:25.640Z,1004.54
2022-10-31T03:21:26.609Z,1004.50
2022-10-31T03:22:25.600Z,1004.47
2022-10-31T03:23:25.604Z,1004.49
2022-10-31T03:24:25.641Z,1004.50
2022-10-31T03:25:25.812Z,1004.47
2022-10-31T03:26:25.557Z,1004.47
2022-10-31T03:27:26.282Z,1004.47
2022-10-31T03:28:26.343Z,1004.53
2022-10-31T03:29:25.901Z,1004.50
2022-10-31T03:30:25.502Z,1004.55
2022-10-31T03:31:25.482Z,1004.52
2022-10-31T03:32:25.522Z,1004.52
2022-10-31T03:33:25.469Z,1004.49
2022-10-31T03:34:25.453Z,1004.54
2022-10-31T03:35:25.705Z,1004.52
2022-10-31T03:36:25.423Z,1004.55
2022-10-31T03:37:26.283Z,1004.53
2022-10-31T03:38:25.383Z,1004.54
2022-10-31T03:39:25.854Z,1004.54
2022-10-31T03:40:25.362Z,1004.56
2022-10-31T03:41:25.354Z,1004.54
2022-10-31T03:42:25.345Z,1004.60
2022-10-31T03:43:25.532Z,1004.59
2022-10-31T03:44:25.545Z,1004.62
2022-10-31T03:45:25.324Z,1004.63
2022-10-31T03:46:25.288Z,1004.58
2022-10-31T03:47:25.288Z,1004.59
2022-10-31T03:48:25.266Z,1004.57
2022-10-31T03:49:25.269Z,1004.55
2022-10-31T03:50:25.299Z,1004.59
2022-10-31T03:51:25.858Z,1004.61
2022-10-31T03:52:26.918Z,1004.64
2022-10-31T03:53:25.219Z,1004.60
2022-10-31T03:54:25.189Z,1004.63
2022-10-31T03:55:25.172Z,1004.63
2022-10-31T03:56:26.100Z,1004.60
2022-10-31T03:57:25.170Z,1004.63
2022-10-31T03:58:25.149Z,1004.62
2022-10-31T03:59:25.131Z,1004.63
2022-10-31T04:00:25.107Z,1004.64
2022-10-31T04:01:25.298Z,1004.63
2022-10-31T04:02:26.125Z,1004.64
2022-10-31T04:03:25.266Z,1004.66
2022-10-31T04:04:25.316Z,1004.70
2022-10-31T04:05:25.397Z,1004.69
2022-10-31T04:06:25.422Z,1004.64
2022-10-31T04:07:25.034Z,1004.71
2022-10-31T04:08:25.042Z,1004.72
2022-10-31T04:09:24.992Z,1004.70
2022-10-31T04:10:31.859Z,1004.69
2022-10-31T04:11:26.203Z,1004.73
2022-10-31T04:12:24.953Z,1004.71
2022-10-31T04:13:25.842Z,1004.72
2022-10-31T04:14:24.914Z,1004.70
2022-10-31T04:15:25.869Z,1004.73
2022-10-31T04:16:24.914Z,1004.79
2022-10-31T04:17:24.884Z,1004.77
2022-10-31T04:18:24.871Z,1004.73
2022-10-31T04:19:24.861Z,1004.70
2022-10-31T04:20:24.836Z,1004.73
2022-10-31T04:21:25.174Z,1004.69
2022-10-31T04:22:24.815Z,1004.74
2022-10-31T04:23:24.818Z,1004.70
2022-10-31T04:24:24.786Z,1004.73
2022-10-31T04:25:24.794Z,1004.67
2022-10-31T04:26:25.378Z,1004.68
2022-10-31T04:27:25.425Z,1004.67
2022-10-31T04:28:24.758Z,1004.70
2022-10-31T04:29:24.727Z,1004.67
2022-10-31T04:30:25.567Z,1004.71
2022-10-31T04:31:24.703Z,1004.69
2022-10-31T04:32:25.138Z,1004.69
2022-10-31T04:33:26.218Z,1004.71
2022-10-31T04:34:24.717Z,1004.67
2022-10-31T04:35:24.659Z,1004.68
2022-10-31T04:36:24.630Z,1004.71
2022-10-31T04:37:25.364Z,1004.68
2022-10-31T04:38:25.409Z,1004.73
2022-10-31T04:39:26.671Z,1004.70
2022-10-31T04:40:25.523Z,1004.77
2022-10-31T04:41:25.061Z,1004.70
2022-10-31T04:42:24.570Z,1004.72
2022-10-31T04:43:24.656Z,1004.72
2022-10-31T04:44:24.693Z,1004.78
2022-10-31T04:45:24.518Z,1004.72
2022-10-31T04:46:24.792Z,1004.76
2022-10-31T04:47:24.742Z,1004.77
2022-10-31T04:48:24.472Z,1004.79
2022-10-31T04:49:24.968Z,1004.75
2022-10-31T04:50:24.444Z,1004.80
2022-10-31T04:51:24.450Z,1004.81
2022-10-31T04:52:24.423Z,1004.82
2022-10-31T04:53:24.403Z,1004.83
2022-10-31T04:54:24.401Z,1004.85
2022-10-31T04:55:24.384Z,1004.84
2022-10-31T04:56:24.370Z,1004.85
2022-10-31T04:57:24.354Z,1004.88
2022-10-31T04:58:24.349Z,1004.91
2022-10-31T04:59:24.358Z,1004.89
2022-10-31T05:00:24.322Z,1004.88
2022-10-31T05:01:24.409Z,1004.92
2022-10-31T05:02:24.347Z,1004.89
2022-10-31T05:03:24.276Z,1004.88
2022-10-31T05:04:24.266Z,1004.90
2022-10-31T05:05:24.247Z,1004.91
2022-10-31T05:06:24.236Z,1004.90
2022-10-31T05:07:24.243Z,1004.87
2022-10-31T05:08:24.217Z,1004.87
2022-10-31T05:09:24.208Z,1004.88
2022-10-31T05:10:24.183Z,1004.89
2022-10-31T05:11:24.168Z,1004.90
2022-10-31T05:12:24.170Z,1004.88
2022-10-31T05:13:24.144Z,1004.89
2022-10-31T05:14:24.124Z,1004.88
2022-10-31T05:15:24.379Z,1004.85
2022-10-31T05:16:24.099Z,1004.87
2022-10-31T05:17:24.106Z,1004.84
2022-10-31T05:18:24.081Z,1004.84
2022-10-31T05:19:24.063Z,1004.82
2022-10-31T05:20:24.050Z,1004.86
2022-10-31T05:21:24.999Z,1004.83
2022-10-31T05:22:24.042Z,1004.87
2022-10-31T05:23:24.012Z,1004.86
2022-10-31T05:24:24.002Z,1004.85
2022-10-31T05:25:23.992Z,1004.87
2022-10-31T05:26:23.972Z,1004.89
2022-10-31T05:27:24.922Z,1004.82
2022-10-31T05:28:23.950Z,1004.84
2022-10-31T05:29:23.943Z,1004.90
2022-10-31T05:30:23.934Z,1004.93
2022-10-31T05:31:23.920Z,1004.90
2022-10-31T05:32:23.893Z,1004.90
2022-10-31T05:33:23.878Z,1004.91
2022-10-31T05:34:23.880Z,1004.89
2022-10-31T05:35:23.864Z,1004.88
2022-10-31T05:36:23.835Z,1004.93
2022-10-31T05:37:23.835Z,1004.91
2022-10-31T05:38:24.087Z,1004.92
2022-10-31T05:39:23.801Z,1004.88
2022-10-31T05:40:23.788Z,1004.90
2022-10-31T05:41:23.778Z,1004.92
2022-10-31T05:42:23.778Z,1004.92
2022-10-31T05:43:24.704Z,1004.90
2022-10-31T05:44:24.696Z,1004.96
2022-10-31T05:45:23.730Z,1004.96
2022-10-31T05:46:23.762Z,1004.97
2022-10-31T05:47:23.708Z,1004.97
2022-10-31T05:48:23.687Z,1004.97
2022-10-31T05:49:23.684Z,1004.97
2022-10-31T05:50:23.649Z,1004.99
2022-10-31T05:51:23.667Z,1004.96
2022-10-31T05:52:23.630Z,1005.00
2022-10-31T05:53:24.577Z,1004.97
2022-10-31T05:54:24.558Z,1004.96
2022-10-31T05:55:23.590Z,1004.97
2022-10-31T05:56:23.582Z,1004.98
2022-10-31T05:57:23.560Z,1005.01
2022-10-31T05:58:24.519Z,1005.06
2022-10-31T05:59:24.488Z,1005.01
2022-10-31T06:00:23.527Z,1005.05
2022-10-31T06:01:23.590Z,1005.06
2022-10-31T06:02:23.499Z,1005.05
2022-10-31T06:03:23.496Z,1005.05
2022-10-31T06:04:23.526Z,1005.08
2022-10-31T06:05:23.461Z,1005.08
2022-10-31T06:06:23.453Z,1005.08
2022-10-31T06:07:23.441Z,1005.04
2022-10-31T06:08:24.364Z,1005.08
2022-10-31T06:09:23.438Z,1005.04
2022-10-31T06:10:23.393Z,1005.06
2022-10-31T06:11:23.383Z,1005.02
2022-10-31T06:12:23.363Z,1005.04
2022-10-31T06:13:23.354Z,1005.05
2022-10-31T06:14:24.285Z,1005.05
2022-10-31T06:15:24.349Z,1005.08
2022-10-31T06:16:23.326Z,1005.06
2022-10-31T06:17:23.295Z,1005.10
2022-10-31T06:18:23.305Z,1005.03
2022-10-31T06:19:23.296Z,1005.05
2022-10-31T06:20:23.295Z,1005.08
2022-10-31T06:21:23.282Z,1005.08
2022-10-31T06:22:23.256Z,1005.10
2022-10-31T06:23:24.176Z,1005.09
2022-10-31T06:24:23.208Z,1005.11
2022-10-31T06:25:23.207Z,1005.11
2022-10-31T06:26:23.187Z,1005.12
2022-10-31T06:27:23.177Z,1005.16
2022-10-31T06:28:24.108Z,1005.16
2022-10-31T06:29:23.150Z,1005.20
2022-10-31T06:30:23.154Z,1005.17
2022-10-31T06:31:23.119Z,1005.21
2022-10-31T06:32:23.100Z,1005.22
2022-10-31T06:33:23.089Z,1005.18
2022-10-31T06:34:24.019Z,1005.23
2022-10-31T06:35:23.069Z,1005.27
2022-10-31T06:36:23.101Z,1005.26
2022-10-31T06:37:23.039Z,1005.30
2022-10-31T06:38:23.023Z,1005.31
2022-10-31T06:39:23.011Z,1005.35
2022-10-31T06:40:23.007Z,1005.30
2022-10-31T06:41:23.119Z,1005.28
2022-10-31T06:42:22.971Z,1005.31
2022-10-31T06:43:22.977Z,1005.29
2022-10-31T06:44:22.942Z,1005.33
2022-10-31T06:45:22.951Z,1005.33
2022-10-31T06:46:22.912Z,1005.33
2022-10-31T06:47:22.908Z,1005.33
2022-10-31T06:48:23.077Z,1005.35
2022-10-31T06:49:22.894Z,1005.37
2022-10-31T06:50:22.890Z,1005.34
2022-10-31T06:51:22.854Z,1005.33
2022-10-31T06:52:22.847Z,1005.35
2022-10-31T06:53:22.826Z,1005.38
2022-10-31T06:54:22.816Z,1005.35
2022-10-31T06:55:22.804Z,1005.36
2022-10-31T06:56:22.795Z,1005.37
2022-10-31T06:57:22.785Z,1005.39
2022-10-31T06:58:22.755Z,1005.41
2022-10-31T06:59:22.757Z,1005.42
2022-10-31T07:00:22.747Z,1005.39
2022-10-31T07:01:22.876Z,1005.40
2022-10-31T07:02:22.782Z,1005.45
2022-10-31T07:03:22.694Z,1005.46
2022-10-31T07:04:22.678Z,1005.49
2022-10-31T07:05:22.676Z,1005.45
2022-10-31T07:06:22.661Z,1005.51
2022-10-31T07:07:22.647Z,1005.47
2022-10-31T07:08:22.629Z,1005.51
2022-10-31T07:09:22.623Z,1005.51
2022-10-31T07:10:22.609Z,1005.52
2022-10-31T07:11:22.589Z,1005.53
2022-10-31T07:12:22.590Z,1005.56
2022-10-31T07:13:22.569Z,1005.59
2022-10-31T07:14:22.549Z,1005.57
2022-10-31T07:15:22.550Z,1005.60
2022-10-31T07:16:22.522Z,1005.57
2022-10-31T07:17:26.040Z,1005.63
2022-10-31T07:18:23.490Z,1005.61
2022-10-31T07:19:22.490Z,1005.63
2022-10-31T07:20:22.473Z,1005.65
2022-10-31T07:21:22.461Z,1005.63
2022-10-31T07:22:22.444Z,1005.66
2022-10-31T07:23:22.430Z,1005.70
2022-10-31T07:24:22.434Z,1005.70
2022-10-31T07:25:22.402Z,1005.69
2022-10-31T07:26:22.392Z,1005.70
2022-10-31T07:27:22.373Z,1005.70
2022-10-31T07:28:22.373Z,1005.70
2022-10-31T07:29:22.354Z,1005.70
2022-10-31T07:30:22.343Z,1005.73
2022-10-31T07:31:22.355Z,1005.73
2022-10-31T07:32:22.315Z,1005.70
2022-10-31T07:33:22.303Z,1005.70
2022-10-31T07:34:22.285Z,1005.73
2022-10-31T07:35:22.285Z,1005.69
2022-10-31T07:36:22.268Z,1005.68
2022-10-31T07:37:22.245Z,1005.66
2022-10-31T07:38:22.252Z,1005.64
2022-10-31T07:39:22.216Z,1005.66
2022-10-31T07:40:22.214Z,1005.63
2022-10-31T07:41:22.196Z,1005.64
2022-10-31T07:42:22.191Z,1005.65
2022-10-31T07:43:22.186Z,1005.63
2022-10-31T07:44:22.225Z,1005.64
2022-10-31T07:45:22.148Z,1005.66
2022-10-31T07:46:22.139Z,1005.62
2022-10-31T07:47:22.120Z,1005.62
2022-10-31T07:48:22.120Z,1005.61
2022-10-31T07:49:22.128Z,1005.64
2022-10-31T07:50:22.099Z,1005.61
2022-10-31T07:51:22.069Z,1005.56
2022-10-31T07:52:22.059Z,1005.64
2022-10-31T07:53:22.040Z,1005.63
2022-10-31T07:54:22.059Z,1005.63
2022-10-31T07:55:22.033Z,1005.59
2022-10-31T07:56:22.017Z,1005.64
2022-10-31T07:57:25.145Z,1005.61
2022-10-31T07:58:22.012Z,1005.62
2022-10-31T07:59:21.959Z,1005.66
2022-10-31T08:00:21.958Z,1005.68
2022-10-31T08:01:21.932Z,1005.65
2022-10-31T08:02:21.922Z,1005.64
2022-10-31T08:03:21.924Z,1005.65
2022-10-31T08:04:21.903Z,1005.67
2022-10-31T08:05:21.883Z,1005.67
2022-10-31T08:06:21.872Z,1005.66
2022-10-31T08:07:21.928Z,1005.66
2022-10-31T08:08:21.923Z,1005.56
2022-10-31T08:09:21.824Z,1005.55
2022-10-31T08:10:21.825Z,1005.53
2022-10-31T08:11:21.796Z,1005.55
2022-10-31T08:12:22.748Z,1005.56
2022-10-31T08:13:21.785Z,1005.57
2022-10-31T08:14:21.775Z,1005.59
2022-10-31T08:15:21.747Z,1005.63
2022-10-31T08:16:21.748Z,1005.59
2022-10-31T08:17:21.726Z,1005.61
2022-10-31T08:18:21.727Z,1005.66
2022-10-31T08:19:21.937Z,1005.65
2022-10-31T08:20:21.689Z,1005.58
2022-10-31T08:21:21.668Z,1005.57
2022-10-31T08:22:21.657Z,1005.60
2022-10-31T08:23:22.598Z,1005.56
2022-10-31T08:24:21.641Z,1005.59
2022-10-31T08:25:21.609Z,1005.59
2022-10-31T08:26:21.609Z,1005.57
2022-10-31T08:27:21.591Z,1005.56
2022-10-31T08:28:21.592Z,1005.60
2022-10-31T08:29:21.570Z,1005.59
2022-10-31T08:30:21.560Z,1005.58
2022-10-31T08:31:21.564Z,1005.55
2022-10-31T08:32:21.528Z,1005.56
2022-10-31T08:33:21.522Z,1005.57
2022-10-31T08:34:21.526Z,1005.56
2022-10-31T08:35:21.498Z,1005.53
2022-10-31T08:36:21.512Z,1005.57
2022-10-31T08:37:21.460Z,1005.59
2022-10-31T08:38:21.463Z,1005.58
2022-10-31T08:39:21.432Z,1005.57
2022-10-31T08:40:21.450Z,1005.61
2022-10-31T08:41:21.413Z,1005.61
2022-10-31T08:42:21.403Z,1005.62
2022-10-31T08:43:21.396Z,1005.64
2022-10-31T08:44:21.410Z,1005.63
2022-10-31T08:45:21.354Z,1005.61
2022-10-31T08:46:21.340Z,1005.55
2022-10-31T08:47:21.325Z,1005.58
2022-10-31T08:48:21.325Z,1005.57
2022-10-31T08:49:21.300Z,1005.56
2022-10-31T08:50:21.295Z,1005.56
2022-10-31T08:51:21.286Z,1005.56
2022-10-31T08:52:23.457Z,1005.52
2022-10-31T08:53:22.257Z,1005.54
2022-10-31T08:54:21.247Z,1005.53
2022-10-31T08:55:21.219Z,1005.46
2022-10-31T08:56:21.222Z,1005.47
2022-10-31T08:57:21.215Z,1005.47
2022-10-31T08:58:21.198Z,1005.50
2022-10-31T08:59:21.181Z,1005.46
2022-10-31T09:00:21.168Z,1005.48
2022-10-31T09:01:21.228Z,1005.51
2022-10-31T09:02:21.235Z,1005.51
2022-10-31T09:03:21.130Z,1005.53
2022-10-31T09:04:21.120Z,1005.49
2022-10-31T09:05:21.090Z,1005.47
2022-10-31T09:06:21.126Z,1005.46
2022-10-31T09:07:21.625Z,1005.44
2022-10-31T09:08:21.068Z,1005.44
2022-10-31T09:09:21.040Z,1005.43
2022-10-31T09:10:21.035Z,1005.44
2022-10-31T09:11:21.015Z,1005.46
2022-10-31T09:12:21.010Z,1005.41
2022-10-31T09:13:21.003Z,1005.44
2022-10-31T09:14:20.984Z,1005.44
2022-10-31T09:15:21.928Z,1005.41
2022-10-31T09:16:20.953Z,1005.43
2022-10-31T09:17:20.944Z,1005.44
2022-10-31T09:18:20.924Z,1005.40
2022-10-31T09:19:20.922Z,1005.36
2022-10-31T09:20:20.897Z,1005.37
2022-10-31T09:21:20.888Z,1005.36
2022-10-31T09:22:20.882Z,1005.34
2022-10-31T09:23:20.919Z,1005.37
2022-10-31T09:24:20.876Z,1005.38
2022-10-31T09:25:20.838Z,1005.38
2022-10-31T09:26:20.826Z,1005.40
2022-10-31T09:27:20.840Z,1005.39
2022-10-31T09:28:20.801Z,1005.42
2022-10-31T09:29:20.785Z,1005.39
2022-10-31T09:30:20.776Z,1005.39
2022-10-31T09:31:20.760Z,1005.41
2022-10-31T09:32:20.759Z,1005.40
2022-10-31T09:33:20.743Z,1005.40
2022-10-31T09:34:20.724Z,1005.37
2022-10-31T09:35:24.695Z,1005.38
2022-10-31T09:36:21.690Z,1005.40
2022-10-31T09:37:20.700Z,1005.41
2022-10-31T09:38:20.661Z,1005.44
2022-10-31T09:39:20.651Z,1005.41
2022-10-31T09:40:20.644Z,1005.40
2022-10-31T09:41:20.631Z,1005.41
2022-10-31T09:42:20.672Z,1005.39
2022-10-31T09:43:20.613Z,1005.41
2022-10-31T09:44:20.595Z,1005.39
2022-10-31T09:45:20.582Z,1005.37
2022-10-31T09:46:20.574Z,1005.38
2022-10-31T09:47:21.357Z,1005.37
2022-10-31T09:48:20.573Z,1005.39
2022-10-31T09:49:20.614Z,1005.41
2022-10-31T09:50:20.512Z,1005.36
2022-10-31T09:51:20.505Z,1005.36
2022-10-31T09:52:20.494Z,1005.37
2022-10-31T09:53:20.465Z,1005.39
2022-10-31T09:54:20.457Z,1005.41
2022-10-31T09:55:20.435Z,1005.43
2022-10-31T09:56:20.464Z,1005.41
2022-10-31T09:57:20.439Z,1005.37
2022-10-31T09:58:20.408Z,1005.38
2022-10-31T09:59:20.395Z,1005.36
2022-10-31T10:00:20.393Z,1005.34
2022-10-31T10:01:20.535Z,1005.34
2022-10-31T10:02:20.420Z,1005.34
2022-10-31T10:03:20.340Z,1005.30
2022-10-31T10:04:21.029Z,1005.34
2022-10-31T10:05:20.317Z,1005.34
2022-10-31T10:06:20.309Z,1005.31
2022-10-31T10:07:20.289Z,1005.32
2022-10-31T10:08:20.281Z,1005.33
2022-10-31T10:10:20.383Z,1005.29
2022-10-31T10:11:20.252Z,1005.30
2022-10-31T10:12:20.237Z,1005.29
2022-10-31T10:13:20.208Z,1005.32
2022-10-31T10:14:20.202Z,1005.33
2022-10-31T10:15:20.181Z,1005.29
2022-10-31T10:16:20.185Z,1005.31
2022-10-31T10:17:20.153Z,1005.30
2022-10-31T10:18:20.142Z,1005.28
2022-10-31T10:19:20.133Z,1005.24
2022-10-31T10:20:20.738Z,1005.23
2022-10-31T10:21:20.123Z,1005.22
2022-10-31T10:22:20.091Z,1005.19
2022-10-31T10:23:20.079Z,1005.18
2022-10-31T10:24:20.065Z,1005.17
2022-10-31T10:25:20.045Z,1005.18
2022-10-31T10:26:20.174Z,1005.17
2022-10-31T10:27:22.396Z,1005.21
2022-10-31T10:28:20.029Z,1005.20
2022-10-31T10:29:19.999Z,1005.18
2022-10-31T10:30:20.040Z,1005.17
2022-10-31T10:31:20.001Z,1005.19
2022-10-31T10:32:19.963Z,1005.19
2022-10-31T10:33:19.943Z,1005.20
2022-10-31T10:34:19.937Z,1005.18
2022-10-31T10:35:19.919Z,1005.15
2022-10-31T10:36:19.919Z,1005.16
2022-10-31T10:37:19.886Z,1005.13
2022-10-31T10:38:19.889Z,1005.09
2022-10-31T10:39:19.867Z,1005.04
2022-10-31T10:40:20.022Z,1004.98
2022-10-31T10:41:19.864Z,1005.05
2022-10-31T10:42:19.841Z,1005.00
2022-10-31T10:43:19.825Z,1005.01
2022-10-31T10:44:19.802Z,1004.95
2022-10-31T10:45:19.792Z,1004.95
2022-10-31T10:46:19.791Z,1004.97
2022-10-31T10:47:19.779Z,1004.95
2022-10-31T10:48:19.763Z,1004.88
2022-10-31T10:49:19.743Z,1004.93
2022-10-31T10:50:19.795Z,1004.93
2022-10-31T10:51:31.998Z,1004.90
2022-10-31T10:52:39.809Z,1004.89
2022-10-31T10:53:20.699Z,1004.84
2022-10-31T10:54:19.675Z,1004.83
2022-10-31T10:55:19.665Z,1004.87
2022-10-31T10:56:19.646Z,1004.85
2022-10-31T10:57:19.627Z,1004.83
2022-10-31T10:58:19.616Z,1004.85
2022-10-31T10:59:19.596Z,1004.81
2022-10-31T11:00:19.695Z,1004.83
2022-10-31T11:01:19.580Z,1004.80
2022-10-31T11:02:19.559Z,1004.77
2022-10-31T11:03:19.546Z,1004.79
2022-10-31T11:04:19.538Z,1004.79
2022-10-31T11:05:19.529Z,1004.81
2022-10-31T11:06:19.509Z,1004.82
2022-10-31T11:07:19.494Z,1004.81
2022-10-31T11:08:22.405Z,1004.79
2022-10-31T11:09:20.501Z,1004.79
2022-10-31T11:10:19.540Z,1004.82
2022-10-31T11:11:19.440Z,1004.81
2022-10-31T11:12:19.462Z,1004.83
2022-10-31T11:13:19.421Z,1004.80
2022-10-31T11:14:19.403Z,1004.77
2022-10-31T11:15:19.422Z,1004.81
2022-10-31T11:16:19.384Z,1004.77
2022-10-31T11:17:19.364Z,1004.78
2022-10-31T11:18:19.400Z,1004.74
2022-10-31T11:19:19.363Z,1004.71
2022-10-31T11:20:19.417Z,1004.71
2022-10-31T11:21:19.305Z,1004.68
2022-10-31T11:22:19.328Z,1004.62
2022-10-31T11:23:19.327Z,1004.62
2022-10-31T11:24:19.275Z,1004.60
2022-10-31T11:25:19.268Z,1004.60
2022-10-31T11:26:19.256Z,1004.62
2022-10-31T11:27:20.196Z,1004.62
2022-10-31T11:28:19.229Z,1004.58
2022-10-31T11:29:19.208Z,1004.56
2022-10-31T11:30:19.206Z,1004.56
2022-10-31T11:31:19.178Z,1004.60
2022-10-31T11:32:19.157Z,1004.63
2022-10-31T11:33:20.101Z,1004.56
2022-10-31T11:34:19.138Z,1004.55
2022-10-31T11:35:19.139Z,1004.55
2022-10-31T11:36:19.123Z,1004.53
2022-10-31T11:37:19.100Z,1004.55
2022-10-31T11:38:19.081Z,1004.53
2022-10-31T11:39:19.081Z,1004.52
2022-10-31T11:40:19.061Z,1004.50
2022-10-31T11:41:19.067Z,1004.51
2022-10-31T11:42:19.024Z,1004.48
2022-10-31T11:43:19.019Z,1004.48
2022-10-31T11:44:19.000Z,1004.51
2022-10-31T11:45:19.004Z,1004.48
2022-10-31T11:46:18.974Z,1004.48
2022-10-31T11:47:18.973Z,1004.46
2022-10-31T11:48:18.954Z,1004.44
2022-10-31T11:49:18.944Z,1004.42
2022-10-31T11:50:18.926Z,1004.42
2022-10-31T11:51:19.879Z,1004.40
2022-10-31T11:52:18.906Z,1004.41
2022-10-31T11:53:18.897Z,1004.36
2022-10-31T11:54:18.876Z,1004.37
2022-10-31T11:55:18.877Z,1004.37
2022-10-31T11:56:18.847Z,1004.35
2022-10-31T11:57:18.835Z,1004.30
2022-10-31T11:58:18.817Z,1004.28
2022-10-31T11:59:18.817Z,1004.32
2022-10-31T12:00:18.869Z,1004.31
2022-10-31T12:01:18.838Z,1004.29
2022-10-31T12:02:18.972Z,1004.25
2022-10-31T12:03:18.807Z,1004.27
2022-10-31T12:04:18.740Z,1004.27
2022-10-31T12:05:18.740Z,1004.25
2022-10-31T12:06:18.720Z,1004.26
2022-10-31T12:07:18.749Z,1004.24
2022-10-31T12:08:18.731Z,1004.20
2022-10-31T12:09:18.673Z,1004.19